Royse City, Texas
Current Conditions -  °F | °C
As of 10:55 AM on Tuesday 27 Jan 2015 (Local Time) from KF46 Reporting Station
Clear Clear  
Wind Chill: 63°   Ceiling: Unl
Heat Index: 63°   Visibility: 10mi
Dew Point: 41°   Wind: 3mph
Humidity: 45%   Direction: 340°NNW
Pressure: 30.19"   Gusts: NA
Location:  32.98°N, 96.33°W
Report Text: KF46 271655Z AUTO 34003KT 10SM CLR 17/05 A3019 RMK AO2 T01700050
Loading
Personal Weather Stations






























Interactive Weather Map New forecast layout! Learn more

10-Day Weather Forecast

Advertisements
Track Severe Weather on mobile